createdAt,value
2019-02-26T00:00:26.655Z,14.10
2019-02-26T00:05:47.825Z,15.00
2019-02-26T00:10:58.599Z,15.30
2019-02-26T00:16:05.592Z,14.90
2019-02-26T00:21:10.471Z,14.80
2019-02-26T00:26:17.761Z,17.23
2019-02-26T00:31:24.288Z,18.77
2019-02-26T00:36:34.183Z,17.90
2019-02-26T00:41:58.864Z,17.37
2019-02-26T00:47:23.011Z,16.83
2019-02-26T00:52:30.371Z,17.00
2019-02-26T00:57:38.448Z,21.87
2019-02-26T01:02:44.025Z,15.80
2019-02-26T01:07:52.105Z,16.93
2019-02-26T01:12:58.663Z,19.00
2019-02-26T01:18:20.723Z,22.53
2019-02-26T01:23:28.968Z,17.53
2019-02-26T01:28:44.149Z,17.10
2019-02-26T01:34:09.775Z,17.60
2019-02-26T01:39:16.352Z,15.40
2019-02-26T01:44:28.096Z,19.10
2019-02-26T01:49:31.594Z,19.97
2019-02-26T01:54:39.170Z,25.50
2019-02-26T01:59:44.415Z,15.80
2019-02-26T02:04:50.383Z,19.30
2019-02-26T02:09:58.266Z,20.30
2019-02-26T02:15:08.087Z,16.33
2019-02-26T02:20:19.385Z,16.83
2019-02-26T02:25:23.200Z,17.27
2019-02-26T02:30:31.379Z,14.57
2019-02-26T02:35:36.270Z,15.07
2019-02-26T02:40:43.304Z,18.70
2019-02-26T02:45:49.975Z,20.00
2019-02-26T02:50:56.318Z,15.53
2019-02-26T02:56:03.746Z,14.10
2019-02-26T03:01:10.256Z,15.83
2019-02-26T03:06:15.867Z,18.93
2019-02-26T03:11:22.112Z,15.03
2019-02-26T03:16:27.721Z,18.80
2019-02-26T03:21:33.223Z,14.53
2019-02-26T03:26:38.762Z,25.33
2019-02-26T03:31:47.130Z,21.80
2019-02-26T03:36:51.554Z,20.17
2019-02-26T03:41:57.184Z,16.97
2019-02-26T03:47:03.226Z,20.40
2019-02-26T03:52:08.820Z,19.50
2019-02-26T03:57:16.642Z,19.63
2019-02-26T04:02:23.491Z,20.30
2019-02-26T04:07:30.251Z,19.07
2019-02-26T04:12:41.836Z,17.57
2019-02-26T04:17:44.485Z,23.97
2019-02-26T04:22:53.293Z,14.93
2019-02-26T04:28:40.429Z,16.07
2019-02-26T04:34:31.371Z,19.37
2019-02-26T04:40:14.301Z,15.17
2019-02-26T04:46:17.805Z,22.50
2019-02-26T04:51:35.853Z,20.60
2019-02-26T04:56:42.833Z,18.87
2019-02-26T05:01:49.910Z,18.77
2019-02-26T05:06:55.728Z,16.73
2019-02-26T05:12:03.585Z,21.93
2019-02-26T05:17:11.633Z,19.40
2019-02-26T05:22:19.834Z,18.67
2019-02-26T05:27:25.432Z,17.73
2019-02-26T05:32:33.397Z,17.77
2019-02-26T05:37:40.992Z,19.77
2019-02-26T05:42:49.699Z,25.10
2019-02-26T05:47:58.668Z,20.47
2019-02-26T05:53:05.524Z,23.63
2019-02-26T05:58:12.573Z,22.13
2019-02-26T06:03:19.828Z,24.00
2019-02-26T06:08:32.282Z,25.17
2019-02-26T06:13:38.266Z,21.40
2019-02-26T06:18:46.511Z,20.63
2019-02-26T06:23:55.715Z,44.60
2019-02-26T06:29:03.055Z,30.90
2019-02-26T06:34:11.298Z,23.00
2019-02-26T06:39:20.257Z,22.30
2019-02-26T06:44:47.138Z,20.47
2019-02-26T06:49:54.223Z,23.70
2019-02-26T06:55:03.545Z,22.27
2019-02-26T07:00:26.918Z,25.20
2019-02-26T07:05:33.659Z,21.97
2019-02-26T07:10:39.569Z,20.00
2019-02-26T07:15:45.424Z,21.60
2019-02-26T07:20:53.134Z,22.97
2019-02-26T07:26:00.349Z,23.60
2019-02-26T07:31:08.123Z,17.77
2019-02-26T07:36:13.592Z,21.50
2019-02-26T07:41:31.492Z,21.53
2019-02-26T07:46:38.515Z,19.43
2019-02-26T07:51:44.346Z,32.20
2019-02-26T07:56:52.361Z,24.97
2019-02-26T08:01:57.544Z,20.53
2019-02-26T08:07:03.778Z,25.20
2019-02-26T08:12:11.254Z,23.90
2019-02-26T08:17:17.717Z,26.07
2019-02-26T08:22:24.837Z,29.63
2019-02-26T08:27:33.853Z,26.33
2019-02-26T08:32:40.088Z,23.80
2019-02-26T08:37:46.099Z,22.83
2019-02-26T08:42:54.880Z,28.13
2019-02-26T08:48:26.439Z,23.70
2019-02-26T08:53:31.803Z,23.70
2019-02-26T08:58:37.529Z,22.80
2019-02-26T09:03:43.957Z,22.30
2019-02-26T09:08:49.912Z,22.50
2019-02-26T09:13:59.523Z,23.67
2019-02-26T09:19:07.232Z,22.30
2019-02-26T09:24:12.790Z,25.03
2019-02-26T09:29:19.768Z,28.10
2019-02-26T09:34:28.707Z,21.60
2019-02-26T09:39:36.321Z,24.37
2019-02-26T09:44:42.601Z,25.20
2019-02-26T09:49:49.455Z,24.00
2019-02-26T09:54:55.612Z,22.77
2019-02-26T10:00:06.030Z,24.10
2019-02-26T10:05:14.102Z,22.40
2019-02-26T10:10:20.720Z,24.60
2019-02-26T10:15:45.274Z,21.63
2019-02-26T10:21:09.198Z,28.47
2019-02-26T10:26:18.647Z,20.70
2019-02-26T10:31:27.493Z,23.03
2019-02-26T10:36:34.765Z,19.83
2019-02-26T10:41:41.808Z,21.00
2019-02-26T10:46:47.258Z,17.47
2019-02-26T10:51:52.854Z,18.43
2019-02-26T10:57:00.433Z,21.20
2019-02-26T11:02:06.794Z,20.90
2019-02-26T11:07:14.208Z,17.53
2019-02-26T11:12:33.986Z,18.97
2019-02-26T11:17:38.683Z,18.63
2019-02-26T11:22:49.754Z,18.63
2019-02-26T11:27:55.978Z,20.97
2019-02-26T11:33:38.360Z,13.60
2019-02-26T11:38:47.066Z,17.83
2019-02-26T11:43:53.183Z,13.87
2019-02-26T11:48:58.771Z,18.73
2019-02-26T11:54:17.691Z,22.83
2019-02-26T11:59:23.864Z,12.83
2019-02-26T12:04:29.501Z,17.57
2019-02-26T12:09:38.548Z,17.60
2019-02-26T12:14:47.949Z,13.30
2019-02-26T12:19:53.432Z,17.07
2019-02-26T12:25:01.837Z,13.00
2019-02-26T12:30:10.701Z,13.20
2019-02-26T12:35:17.963Z,14.83
2019-02-26T12:40:25.529Z,13.10
2019-02-26T12:45:31.808Z,11.63
2019-02-26T12:50:40.479Z,9.87
2019-02-26T12:55:45.641Z,12.70
2019-02-26T13:00:51.302Z,14.83
2019-02-26T13:05:56.861Z,12.50
2019-02-26T13:11:02.534Z,14.60
2019-02-26T13:16:16.690Z,11.60
2019-02-26T13:21:23.375Z,13.63
2019-02-26T13:27:00.982Z,14.43
2019-02-26T13:32:13.098Z,13.33
2019-02-26T13:37:15.608Z,12.13
2019-02-26T13:42:21.637Z,13.10
2019-02-26T13:47:31.086Z,16.07
2019-02-26T13:52:37.053Z,14.13
2019-02-26T13:57:42.607Z,15.70
2019-02-26T14:02:50.222Z,17.37
2019-02-26T14:07:56.139Z,16.23
2019-02-26T14:13:03.807Z,16.60
2019-02-26T14:18:11.258Z,19.30
2019-02-26T14:23:34.984Z,17.20
2019-02-26T14:28:44.108Z,13.17
2019-02-26T14:33:57.312Z,15.77
2019-02-26T14:39:05.879Z,15.97
2019-02-26T14:44:17.136Z,16.30
2019-02-26T14:49:22.763Z,17.33
2019-02-26T14:54:32.972Z,13.97
2019-02-26T14:59:48.164Z,14.13
2019-02-26T15:04:53.812Z,16.60
2019-02-26T15:10:00.470Z,18.50
2019-02-26T15:15:10.774Z,18.23
2019-02-26T15:20:18.101Z,14.23
2019-02-26T15:25:24.806Z,16.63
2019-02-26T15:30:30.412Z,20.03
2019-02-26T15:35:35.980Z,16.27
2019-02-26T15:40:42.538Z,20.23
2019-02-26T15:45:52.065Z,14.83
2019-02-26T15:50:55.514Z,16.07
2019-02-26T15:56:02.114Z,18.10
2019-02-26T16:01:15.756Z,21.20
2019-02-26T16:06:21.479Z,19.97
2019-02-26T16:11:27.095Z,17.17
2019-02-26T16:16:34.471Z,16.70
2019-02-26T16:21:40.260Z,20.67
2019-02-26T16:26:46.041Z,31.27
2019-02-26T16:31:52.101Z,31.63
2019-02-26T16:36:57.818Z,20.67
2019-02-26T16:42:05.444Z,18.73
2019-02-26T16:47:12.653Z,19.37
2019-02-26T16:52:19.558Z,16.23
2019-02-26T16:57:28.184Z,22.17
2019-02-26T17:02:34.500Z,21.27
2019-02-26T17:07:45.030Z,20.47
2019-02-26T17:12:54.147Z,23.83
2019-02-26T17:18:10.357Z,21.73
2019-02-26T17:23:21.938Z,15.20
2019-02-26T17:28:30.812Z,17.00
2019-02-26T17:33:36.822Z,24.00
2019-02-26T17:38:45.556Z,19.43
2019-02-26T17:43:53.937Z,18.37
2019-02-26T17:49:02.625Z,19.37
2019-02-26T17:54:19.405Z,24.33
2019-02-26T17:59:33.107Z,19.33
2019-02-26T18:04:40.307Z,17.43
2019-02-26T18:09:46.028Z,16.07
2019-02-26T18:14:56.095Z,18.57
2019-02-26T18:20:02.026Z,20.77
2019-02-26T18:25:11.995Z,22.03
2019-02-26T18:30:22.171Z,21.77
2019-02-26T18:35:32.240Z,24.70
2019-02-26T18:40:40.617Z,34.50
2019-02-26T18:45:48.612Z,28.13
2019-02-26T18:50:56.104Z,23.90
2019-02-26T18:56:05.473Z,20.00
2019-02-26T19:01:11.312Z,20.17
2019-02-26T19:06:18.498Z,26.77
2019-02-26T19:11:26.115Z,25.60
2019-02-26T19:16:37.554Z,20.93
2019-02-26T19:21:46.932Z,21.20
2019-02-26T19:26:53.981Z,32.93
2019-02-26T19:32:04.781Z,33.07
2019-02-26T19:37:12.300Z,28.03
2019-02-26T19:42:21.099Z,26.30
2019-02-26T19:47:29.087Z,26.13
2019-02-26T19:52:34.853Z,28.80
2019-02-26T19:57:41.705Z,31.67
2019-02-26T20:02:48.281Z,28.07
2019-02-26T20:07:58.437Z,27.30
2019-02-26T20:13:12.294Z,45.20
2019-02-26T20:18:20.649Z,42.23
2019-02-26T20:23:24.176Z,29.20
2019-02-26T20:28:29.927Z,27.67
2019-02-26T20:33:36.346Z,22.40
2019-02-26T20:38:42.114Z,31.43
2019-02-26T20:43:53.778Z,32.40
2019-02-26T20:49:05.785Z,30.20
2019-02-26T20:54:16.840Z,35.70
2019-02-26T20:59:23.236Z,33.37
2019-02-26T21:04:28.978Z,31.33
2019-02-26T21:09:40.768Z,31.00
2019-02-26T21:14:44.331Z,28.77
2019-02-26T21:19:50.059Z,32.13
2019-02-26T21:24:56.636Z,23.93
2019-02-26T21:30:11.827Z,24.70
2019-02-26T21:35:20.675Z,25.73
2019-02-26T21:40:33.331Z,30.00
2019-02-26T21:45:39.792Z,29.83
2019-02-26T21:50:47.727Z,33.97
2019-02-26T21:55:53.405Z,37.70
2019-02-26T22:01:02.164Z,35.10
2019-02-26T22:06:11.039Z,30.77
2019-02-26T22:11:19.170Z,35.67
2019-02-26T22:16:25.102Z,33.07
2019-02-26T22:21:31.465Z,48.10
2019-02-26T22:26:37.145Z,32.93
2019-02-26T22:31:42.838Z,27.93
2019-02-26T22:36:48.595Z,33.70
2019-02-26T22:41:54.219Z,31.83
2019-02-26T22:47:00.233Z,28.70
2019-02-26T22:52:10.917Z,28.07
2019-02-26T22:57:18.645Z,28.70
2019-02-26T23:02:24.885Z,24.87
2019-02-26T23:07:30.409Z,25.53
2019-02-26T23:12:36.238Z,32.53
2019-02-26T23:17:41.812Z,25.23
2019-02-26T23:22:47.503Z,26.13
2019-02-26T23:27:55.692Z,31.53
2019-02-26T23:33:03.113Z,24.80
2019-02-26T23:38:11.452Z,30.10
2019-02-26T23:43:17.449Z,27.70
2019-02-26T23:54:07.185Z,25.73
2019-02-26T23:59:15.804Z,24.23
